createdAt,value
2018-07-13T00:00:27.767Z,13.60
2018-07-13T00:03:01.948Z,14.07
2018-07-13T00:05:42.828Z,12.37
2018-07-13T00:08:25.531Z,13.93
2018-07-13T00:10:59.816Z,14.33
2018-07-13T00:13:27.876Z,13.13
2018-07-13T00:16:00.209Z,13.43
2018-07-13T00:18:31.360Z,13.23
2018-07-13T00:21:06.820Z,13.27
2018-07-13T00:23:40.459Z,13.10
2018-07-13T00:26:11.606Z,12.30
2018-07-13T00:28:43.525Z,12.23
2018-07-13T00:31:17.475Z,12.73
2018-07-13T00:33:48.935Z,13.43
2018-07-13T00:36:23.472Z,11.63
2018-07-13T00:38:51.514Z,12.30
2018-07-13T00:41:25.376Z,12.23
2018-07-13T00:44:01.092Z,13.07
2018-07-13T00:46:29.170Z,11.90
2018-07-13T00:48:58.215Z,12.53
2018-07-13T00:51:26.232Z,11.90
2018-07-13T00:54:07.620Z,12.60
2018-07-13T00:56:35.609Z,12.57
2018-07-13T00:59:06.833Z,13.00
2018-07-13T01:01:34.905Z,13.00
2018-07-13T01:07:02.706Z,12.33
2018-07-13T01:09:38.602Z,12.23
2018-07-13T01:12:06.661Z,13.30
2018-07-13T01:14:46.382Z,13.27
2018-07-13T01:17:20.750Z,13.37
2018-07-13T01:19:48.717Z,12.60
2018-07-13T01:27:56.289Z,13.00
2018-07-13T01:30:33.846Z,13.27
2018-07-13T01:33:13.989Z,13.20
2018-07-13T01:35:44.114Z,13.77
2018-07-13T01:38:24.315Z,13.93
2018-07-13T01:43:45.114Z,13.10
2018-07-13T01:49:05.546Z,12.53
2018-07-13T01:54:19.780Z,12.40
2018-07-13T01:56:50.093Z,12.23
2018-07-13T01:59:28.486Z,12.83
2018-07-13T02:01:57.474Z,12.57
2018-07-13T02:04:25.548Z,11.83
2018-07-13T02:09:46.150Z,12.80
2018-07-13T02:12:20.101Z,13.60
2018-07-13T02:14:52.254Z,12.50
2018-07-13T02:17:36.657Z,12.60
2018-07-13T02:20:11.097Z,13.93
2018-07-13T02:22:39.147Z,13.73
2018-07-13T02:25:14.569Z,14.10
2018-07-13T02:27:42.639Z,13.10
2018-07-13T02:30:10.619Z,13.37
2018-07-13T02:35:32.408Z,13.93
2018-07-13T02:38:01.489Z,14.07
2018-07-13T02:40:29.489Z,13.97
2018-07-13T02:43:12.040Z,14.13
2018-07-13T02:45:56.548Z,13.23
2018-07-13T02:48:26.657Z,14.27
2018-07-13T02:51:10.888Z,13.43
2018-07-13T02:53:45.323Z,13.90
2018-07-13T02:56:16.840Z,14.03
2018-07-13T02:58:44.792Z,14.77
2018-07-13T03:01:18.934Z,14.20
2018-07-13T03:06:38.729Z,14.13
2018-07-13T03:09:19.204Z,13.93
2018-07-13T03:14:40.015Z,13.90
2018-07-13T03:17:13.687Z,15.00
2018-07-13T03:19:41.681Z,13.93
2018-07-13T03:25:00.293Z,15.33
2018-07-13T03:27:28.253Z,15.00
2018-07-13T03:30:03.169Z,17.00
2018-07-13T03:32:31.180Z,16.80
2018-07-13T03:37:45.567Z,16.13
2018-07-13T03:40:13.643Z,15.30
2018-07-13T03:42:54.827Z,14.97
2018-07-13T03:45:24.905Z,15.17
2018-07-13T03:47:52.875Z,15.17
2018-07-13T03:50:31.935Z,14.53
2018-07-13T03:53:09.764Z,13.90
2018-07-13T03:55:47.360Z,13.40
2018-07-13T03:58:18.713Z,13.50
2018-07-13T04:00:46.703Z,13.47
2018-07-13T04:03:30.995Z,12.27
2018-07-13T04:08:49.640Z,12.03
2018-07-13T04:11:17.685Z,11.87
2018-07-13T04:13:45.710Z,12.10
2018-07-13T04:16:19.348Z,11.73
2018-07-13T04:21:37.145Z,11.50
2018-07-13T04:24:05.309Z,12.00
2018-07-13T04:26:43.220Z,11.40
2018-07-13T04:29:14.943Z,11.37
2018-07-13T04:31:44.034Z,11.80
2018-07-13T04:34:20.321Z,10.73
2018-07-13T04:36:48.328Z,11.33
2018-07-13T04:39:17.447Z,12.57
2018-07-13T04:42:02.680Z,12.40
2018-07-13T04:44:32.782Z,11.93
2018-07-13T04:47:00.848Z,11.53
2018-07-13T04:49:35.359Z,12.43
2018-07-13T04:52:13.105Z,12.10
2018-07-13T04:54:51.832Z,12.50
2018-07-13T04:57:20.171Z,12.80
2018-07-13T05:00:00.765Z,13.30
2018-07-13T05:02:28.857Z,12.60
2018-07-13T05:05:09.082Z,12.73
2018-07-13T05:07:49.948Z,12.60
2018-07-13T05:10:34.527Z,12.57
2018-07-13T05:13:02.598Z,12.83
2018-07-13T05:15:36.656Z,12.63
2018-07-13T05:18:04.992Z,13.07
2018-07-13T05:20:45.280Z,12.60
2018-07-13T05:23:29.180Z,12.27
2018-07-13T05:26:02.234Z,12.90
2018-07-13T05:31:28.144Z,12.93
2018-07-13T05:34:09.394Z,13.03
2018-07-13T05:36:43.017Z,12.70
2018-07-13T05:41:57.145Z,13.30
2018-07-13T05:44:37.417Z,14.60
2018-07-13T05:47:13.765Z,13.70
2018-07-13T05:49:51.344Z,12.90
2018-07-13T05:52:24.979Z,14.00
2018-07-13T05:54:58.308Z,13.43
2018-07-13T05:57:26.364Z,13.60
2018-07-13T06:00:08.559Z,13.70
2018-07-13T06:02:40.439Z,13.70
2018-07-13T06:05:24.832Z,14.30
2018-07-13T06:07:56.837Z,14.57
2018-07-13T06:13:25.676Z,13.83
2018-07-13T06:15:57.586Z,14.50
2018-07-13T06:18:29.304Z,14.33
2018-07-13T06:20:57.367Z,13.93
2018-07-13T06:23:39.614Z,13.00
2018-07-13T06:26:24.191Z,14.20
2018-07-13T06:28:56.090Z,14.30
2018-07-13T06:31:27.765Z,13.70
2018-07-13T06:36:42.210Z,14.20
2018-07-13T06:42:09.341Z,13.83
2018-07-13T06:44:37.356Z,13.73
2018-07-13T06:47:07.069Z,13.57
2018-07-13T06:52:28.566Z,14.10
2018-07-13T06:54:56.573Z,14.33
2018-07-13T06:57:30.265Z,12.90
2018-07-13T06:59:58.341Z,14.00
2018-07-13T07:02:38.053Z,14.33
2018-07-13T07:05:14.377Z,14.43
2018-07-13T07:07:42.461Z,15.50
2018-07-13T07:10:11.437Z,15.07
2018-07-13T07:12:49.797Z,15.47
2018-07-13T07:15:21.694Z,16.00
2018-07-13T07:17:49.700Z,14.63
2018-07-13T07:20:21.520Z,14.70
2018-07-13T07:22:49.517Z,14.90
2018-07-13T07:25:22.040Z,14.60
2018-07-13T07:27:53.718Z,15.20
2018-07-13T07:30:21.810Z,15.03
2018-07-13T07:32:55.697Z,13.60
2018-07-13T07:35:31.421Z,15.87
2018-07-13T07:38:13.342Z,16.43
2018-07-13T07:40:50.069Z,15.27
2018-07-13T07:43:26.274Z,16.97
2018-07-13T07:45:57.622Z,16.80
2018-07-13T07:54:03.701Z,18.17
2018-07-13T07:56:31.812Z,17.80
2018-07-13T07:59:13.288Z,18.13
2018-07-13T08:01:58.955Z,19.00
2018-07-13T08:07:16.091Z,18.07
2018-07-13T08:09:43.645Z,19.17
2018-07-13T08:12:24.536Z,19.00
2018-07-13T08:14:52.668Z,19.47
2018-07-13T08:20:19.434Z,21.00
2018-07-13T08:22:50.872Z,21.90
2018-07-13T08:25:26.583Z,22.47
2018-07-13T08:27:55.669Z,23.73
2018-07-13T08:33:12.341Z,26.90
2018-07-13T08:35:54.781Z,27.63
2018-07-13T08:43:56.355Z,31.00
2018-07-13T08:49:14.200Z,29.90
2018-07-13T08:51:54.746Z,31.50
2018-07-13T08:54:33.179Z,31.87
2018-07-13T08:57:11.062Z,29.30
2018-07-13T09:02:28.862Z,26.60
2018-07-13T09:05:03.058Z,27.40
2018-07-13T09:07:45.189Z,28.63
2018-07-13T09:12:59.661Z,28.27
2018-07-13T09:18:13.972Z,27.83
2018-07-13T09:20:42.012Z,26.50
2018-07-13T09:23:13.923Z,27.53
2018-07-13T09:28:38.430Z,27.33
2018-07-13T09:31:06.450Z,25.60
2018-07-13T09:36:25.160Z,24.43
2018-07-13T09:38:54.104Z,24.70
2018-07-13T09:41:34.258Z,26.03
2018-07-13T09:44:02.333Z,23.33
2018-07-13T09:49:16.746Z,25.13
2018-07-13T09:52:02.915Z,22.80
2018-07-13T09:54:36.428Z,23.03
2018-07-13T09:57:16.731Z,21.40
2018-07-13T09:59:51.034Z,21.63
2018-07-13T10:02:28.907Z,20.07
2018-07-13T10:05:10.851Z,20.10
2018-07-13T10:07:39.785Z,20.93
2018-07-13T10:10:07.940Z,20.30
2018-07-13T10:15:28.041Z,19.57
2018-07-13T10:17:55.994Z,19.00
2018-07-13T10:20:29.825Z,19.03
2018-07-13T10:23:05.557Z,20.03
2018-07-13T10:25:33.585Z,19.20
2018-07-13T10:30:48.173Z,19.33
2018-07-13T10:33:25.929Z,17.90
2018-07-13T10:38:43.706Z,17.00
2018-07-13T10:41:19.830Z,17.53
2018-07-13T10:46:51.456Z,17.20
2018-07-13T10:49:25.849Z,17.43
2018-07-13T10:51:57.145Z,16.37
2018-07-13T10:54:32.194Z,15.63
2018-07-13T10:57:00.262Z,15.57
2018-07-13T10:59:28.252Z,15.43
2018-07-13T11:04:55.585Z,15.20
2018-07-13T11:10:10.346Z,14.67
2018-07-13T11:12:42.095Z,15.30
2018-07-13T11:15:13.922Z,14.53
2018-07-13T11:17:42.014Z,15.47
2018-07-13T11:20:09.992Z,14.97
2018-07-13T11:22:48.066Z,15.03
2018-07-13T11:25:16.121Z,15.60
2018-07-13T11:27:48.109Z,14.37
2018-07-13T11:30:22.122Z,14.70
2018-07-13T11:44:08.884Z,15.67
2018-07-13T11:49:23.580Z,15.13
2018-07-13T11:51:56.972Z,15.87
2018-07-13T11:54:25.016Z,15.20
2018-07-13T11:56:56.397Z,14.23
2018-07-13T11:59:39.008Z,14.60
2018-07-13T12:02:15.396Z,14.83
2018-07-13T12:04:44.377Z,15.17
2018-07-13T12:07:27.046Z,14.33
2018-07-13T12:10:07.625Z,13.90
2018-07-13T12:23:49.217Z,10.70
2018-07-13T12:29:10.638Z,8.53
2018-07-13T12:31:38.714Z,8.40
2018-07-13T12:34:06.635Z,8.70
2018-07-13T12:36:42.762Z,8.80
2018-07-13T12:39:17.292Z,9.50
2018-07-13T12:41:51.232Z,8.97
2018-07-13T12:44:24.900Z,9.70
2018-07-13T12:49:51.472Z,10.60
2018-07-13T12:52:19.461Z,10.27
2018-07-13T12:57:40.425Z,9.40
2018-07-13T13:00:14.194Z,9.10
2018-07-13T13:02:42.138Z,8.60
2018-07-13T13:13:38.103Z,9.20
2018-07-13T13:16:08.136Z,9.07
2018-07-13T13:18:36.200Z,8.97
2018-07-13T13:24:02.979Z,8.60
2018-07-13T13:26:31.045Z,8.13
2018-07-13T13:29:06.736Z,8.40
2018-07-13T13:31:48.901Z,8.50
2018-07-13T13:34:34.409Z,8.60
2018-07-13T13:37:18.958Z,8.83
2018-07-13T13:50:59.341Z,8.00
2018-07-13T13:53:33.207Z,7.67
2018-07-13T13:56:12.921Z,8.40
2018-07-13T14:01:39.275Z,8.20
2018-07-13T14:12:34.751Z,7.53
2018-07-13T14:15:02.803Z,8.27
2018-07-13T14:28:37.577Z,7.40
2018-07-13T14:31:22.249Z,8.00
2018-07-13T14:33:54.325Z,8.10
2018-07-13T14:42:12.053Z,7.90
2018-07-13T14:50:12.598Z,7.53
2018-07-13T14:52:40.708Z,6.80
2018-07-13T15:03:34.471Z,6.00
2018-07-13T15:06:02.573Z,6.30
2018-07-13T15:08:43.607Z,6.87
2018-07-13T15:11:12.624Z,6.67
2018-07-13T15:13:47.625Z,6.17
2018-07-13T15:21:54.386Z,6.60
2018-07-13T15:32:41.570Z,6.30
2018-07-13T15:35:22.632Z,6.80
2018-07-13T15:43:39.547Z,7.10
2018-07-13T15:54:32.413Z,6.50
2018-07-13T15:59:58.594Z,6.17
2018-07-13T16:10:53.365Z,6.20
2018-07-13T16:19:06.860Z,8.80
2018-07-13T16:21:36.853Z,9.07
2018-07-13T16:24:04.895Z,8.43
2018-07-13T16:32:05.448Z,8.50
2018-07-13T16:37:23.515Z,8.03
2018-07-13T16:39:55.270Z,7.80
2018-07-13T16:45:22.332Z,6.67
2018-07-13T16:47:50.400Z,5.93
2018-07-13T16:50:25.508Z,5.67
2018-07-13T16:55:46.136Z,5.20
2018-07-13T16:58:20.000Z,5.80
2018-07-13T17:00:48.045Z,5.70
2018-07-13T17:06:06.208Z,5.70
2018-07-13T17:08:34.293Z,4.70
2018-07-13T17:11:07.848Z,4.50
2018-07-13T17:24:47.784Z,5.63
2018-07-13T17:27:19.042Z,5.90
2018-07-13T17:30:03.054Z,6.50
2018-07-13T17:32:31.115Z,6.60
2018-07-13T17:35:06.369Z,7.03
2018-07-13T17:40:27.010Z,7.70
2018-07-13T17:45:41.891Z,6.93
2018-07-13T17:51:08.993Z,6.30
2018-07-13T17:53:40.852Z,5.67
2018-07-13T17:56:12.713Z,5.77
2018-07-13T18:01:31.261Z,6.63
2018-07-13T18:04:11.717Z,6.30
2018-07-13T18:06:43.675Z,6.10
2018-07-13T18:09:24.244Z,6.40
2018-07-13T18:11:57.995Z,6.70
2018-07-13T18:14:39.132Z,6.17
2018-07-13T18:17:07.155Z,6.37
2018-07-13T18:19:37.133Z,6.57
2018-07-13T18:24:51.389Z,7.77
2018-07-13T18:27:19.431Z,6.87
2018-07-13T18:29:54.062Z,6.77
2018-07-13T18:32:28.663Z,6.53
2018-07-13T18:35:02.275Z,6.63
2018-07-13T18:37:30.253Z,7.47
2018-07-13T18:40:07.664Z,6.87
2018-07-13T18:45:23.934Z,7.30
2018-07-13T18:47:56.329Z,6.50
2018-07-13T18:50:27.695Z,6.80
2018-07-13T18:53:03.287Z,6.97
2018-07-13T18:55:31.410Z,6.33
2018-07-13T18:58:07.757Z,6.40
2018-07-13T19:00:35.773Z,6.67
2018-07-13T19:03:14.210Z,6.20
2018-07-13T19:05:46.597Z,6.63
2018-07-13T19:08:14.623Z,6.93
2018-07-13T19:10:48.531Z,7.83
2018-07-13T19:13:16.525Z,6.90
2018-07-13T19:15:46.553Z,7.50
2018-07-13T19:18:18.241Z,6.40
2018-07-13T19:20:52.563Z,6.37
2018-07-13T19:23:34.254Z,7.47
2018-07-13T19:26:02.199Z,7.10
2018-07-13T19:28:41.575Z,7.50
2018-07-13T19:31:09.756Z,6.73
2018-07-13T19:33:37.715Z,7.50
2018-07-13T19:36:08.742Z,7.50
2018-07-13T19:38:36.796Z,7.80
2018-07-13T19:41:16.848Z,7.33
2018-07-13T19:43:55.297Z,7.50
2018-07-13T19:46:23.339Z,7.07
2018-07-13T19:48:54.430Z,8.00
2018-07-13T19:51:38.941Z,8.07
2018-07-13T19:54:17.335Z,7.60
2018-07-13T19:56:58.635Z,8.37
2018-07-13T19:59:26.550Z,8.77
2018-07-13T20:02:02.627Z,8.80
2018-07-13T20:04:41.117Z,9.73
2018-07-13T20:07:10.220Z,8.20
2018-07-13T20:09:42.177Z,10.00
2018-07-13T20:12:24.860Z,8.73
2018-07-13T20:14:57.694Z,9.00
2018-07-13T20:17:25.787Z,9.83
2018-07-13T20:20:01.990Z,10.17
2018-07-13T20:22:30.005Z,10.10
2018-07-13T20:25:01.200Z,10.67
2018-07-13T20:27:45.802Z,10.27
2018-07-13T20:30:16.820Z,10.23
2018-07-13T20:32:51.936Z,10.73
2018-07-13T20:38:20.420Z,10.20
2018-07-13T20:43:40.161Z,10.50
2018-07-13T20:48:58.380Z,10.00
2018-07-13T20:51:38.654Z,11.37
2018-07-13T20:54:19.383Z,10.60
2018-07-13T20:56:47.445Z,11.07
2018-07-13T20:59:15.585Z,10.90
2018-07-13T21:01:43.826Z,11.30
2018-07-13T21:07:04.473Z,11.70
2018-07-13T21:09:36.113Z,9.83
2018-07-13T21:12:12.243Z,10.20
2018-07-13T21:14:46.011Z,10.13
2018-07-13T21:17:14.595Z,10.90
2018-07-13T21:19:49.534Z,12.20
2018-07-13T21:22:20.768Z,10.60
2018-07-13T21:24:49.106Z,10.30
2018-07-13T21:27:31.566Z,10.50
2018-07-13T21:30:03.755Z,12.27
2018-07-13T21:32:33.765Z,11.77
2018-07-13T21:37:54.011Z,11.30
2018-07-13T21:40:29.659Z,11.50
2018-07-13T21:42:57.767Z,11.37
2018-07-13T21:45:42.330Z,12.00
2018-07-13T21:48:24.821Z,11.43
2018-07-13T21:51:05.387Z,11.80
2018-07-13T21:53:46.935Z,12.40
2018-07-13T21:56:31.691Z,12.87
2018-07-13T22:01:46.050Z,12.40
2018-07-13T22:04:23.561Z,11.63
2018-07-13T22:06:51.555Z,11.10
2018-07-13T22:09:19.738Z,11.13
2018-07-13T22:11:47.763Z,12.40
2018-07-13T22:14:15.741Z,11.20
2018-07-13T22:16:43.777Z,12.63
2018-07-13T22:19:13.741Z,12.30
2018-07-13T22:24:34.208Z,12.00
2018-07-13T22:27:02.214Z,13.10
2018-07-13T22:29:30.270Z,12.70
2018-07-13T22:31:58.288Z,11.93
2018-07-13T22:34:26.312Z,12.80
2018-07-13T22:36:54.317Z,12.10
2018-07-13T22:39:22.302Z,12.23
2018-07-13T22:42:06.457Z,11.70
2018-07-13T22:44:34.469Z,11.80
2018-07-13T22:47:08.589Z,11.23
2018-07-13T22:49:42.473Z,10.50
2018-07-13T22:52:10.461Z,10.57
2018-07-13T22:54:38.482Z,10.57
2018-07-13T22:57:20.648Z,10.10
2018-07-13T22:59:48.564Z,9.90
2018-07-13T23:02:20.400Z,9.77
2018-07-13T23:04:54.664Z,10.10
2018-07-13T23:07:22.704Z,10.13
2018-07-13T23:09:51.609Z,8.93
2018-07-13T23:12:19.558Z,9.53
2018-07-13T23:14:53.937Z,10.20
2018-07-13T23:17:27.471Z,9.90
2018-07-13T23:20:07.521Z,9.63
2018-07-13T23:22:35.518Z,9.77
2018-07-13T23:25:11.716Z,9.80
2018-07-13T23:27:45.425Z,9.80
2018-07-13T23:30:13.410Z,10.07
2018-07-13T23:32:44.723Z,10.60
2018-07-13T23:35:16.161Z,10.13
2018-07-13T23:37:56.754Z,10.57
2018-07-13T23:40:27.968Z,10.30
2018-07-13T23:43:08.432Z,10.40
2018-07-13T23:48:29.192Z,10.00
2018-07-13T23:51:00.359Z,10.80
2018-07-13T23:53:28.406Z,10.17
2018-07-13T23:55:56.444Z,10.63
2018-07-13T23:58:29.969Z,10.73
